createdAt,value
2023-05-12T00:00:31.306Z,952.6328
2023-05-12T00:01:32.754Z,952.6234
2023-05-12T00:02:33.349Z,952.6141
2023-05-12T00:03:33.693Z,952.6091
2023-05-12T00:04:34.267Z,952.6074
2023-05-12T00:05:35.053Z,952.6057
2023-05-12T00:06:35.590Z,952.6057
2023-05-12T00:07:35.948Z,952.6007
2023-05-12T00:08:36.545Z,952.5936
2023-05-12T00:09:37.906Z,952.5853
2023-05-12T00:10:38.430Z,952.5829
2023-05-12T00:11:38.681Z,952.5753
2023-05-12T00:12:39.443Z,952.5687
2023-05-12T00:16:40.666Z,952.5436
2023-05-12T00:17:40.916Z,952.5471
2023-05-12T00:18:42.040Z,952.5480
2023-05-12T00:19:43.077Z,952.5466
2023-05-12T00:20:44.023Z,952.5389
2023-05-12T00:21:43.534Z,952.5380
2023-05-12T00:22:44.409Z,952.5330
2023-05-12T00:23:44.782Z,952.5298
2023-05-12T00:24:45.661Z,952.5223
2023-05-12T00:25:45.894Z,952.5178
2023-05-12T00:26:46.530Z,952.5100
2023-05-12T00:27:47.084Z,952.5042
2023-05-12T00:28:47.472Z,952.4948
2023-05-12T00:29:49.402Z,952.4918
2023-05-12T00:33:50.911Z,952.4918
2023-05-12T00:34:51.983Z,952.4922
2023-05-12T00:36:53.212Z,952.4871
2023-05-12T00:41:56.645Z,952.4566
2023-05-12T00:43:57.198Z,952.4442
2023-05-12T00:44:57.582Z,952.4437
2023-05-12T00:45:58.774Z,952.4393
2023-05-12T00:46:59.511Z,952.4381
2023-05-12T00:48:59.918Z,952.4244
2023-05-12T00:50:00.214Z,952.4202
2023-05-12T00:51:00.789Z,952.4068
2023-05-12T00:52:01.425Z,952.3993
2023-05-12T00:53:01.877Z,952.3937
2023-05-12T00:54:02.237Z,952.3850
2023-05-12T00:55:03.666Z,952.3787
2023-05-12T00:56:04.348Z,952.3682
2023-05-12T00:57:04.541Z,952.3658
2023-05-12T00:58:05.403Z,952.3597
2023-05-12T00:59:05.982Z,952.3547
2023-05-12T01:00:07.248Z,952.3493
2023-05-12T01:01:07.899Z,952.3442
2023-05-12T01:02:07.887Z,952.3340
2023-05-12T01:03:08.581Z,952.3243
2023-05-12T01:04:09.694Z,952.3127
2023-05-12T01:09:13.694Z,952.3071
2023-05-12T01:11:14.801Z,952.3029
2023-05-12T01:12:15.687Z,952.3029
2023-05-12T01:13:16.682Z,952.2969
2023-05-12T01:14:17.625Z,952.2942
2023-05-12T01:15:18.521Z,952.2858
2023-05-12T01:16:19.043Z,952.2741
2023-05-12T01:17:19.276Z,952.2675
2023-05-12T01:18:19.936Z,952.2573
2023-05-12T01:19:20.527Z,952.2526
2023-05-12T01:20:21.235Z,952.2469
2023-05-12T01:24:23.772Z,952.2230
2023-05-12T01:25:24.263Z,952.2181
2023-05-12T01:27:25.695Z,952.2042
2023-05-12T01:28:25.952Z,952.1850
2023-05-12T01:29:26.588Z,952.1751
2023-05-12T01:30:26.833Z,952.1656
2023-05-12T01:31:27.962Z,952.1533
2023-05-12T01:32:28.650Z,952.1479
2023-05-12T01:33:29.400Z,952.1391
2023-05-12T01:34:29.768Z,952.1348
2023-05-12T01:35:30.447Z,952.1298
2023-05-12T01:36:30.928Z,952.1300
2023-05-12T01:37:31.017Z,952.1307
2023-05-12T01:38:31.919Z,952.1418
2023-05-12T01:39:32.573Z,952.1494
2023-05-12T01:40:33.319Z,952.1570
2023-05-12T01:41:33.522Z,952.1644
2023-05-12T01:42:34.777Z,952.1738
2023-05-12T01:43:35.234Z,952.1795
2023-05-12T01:44:36.483Z,952.1882
2023-05-12T01:45:37.022Z,952.2003
2023-05-12T01:46:38.438Z,952.2056
2023-05-12T01:47:39.607Z,952.2181
2023-05-12T01:48:39.956Z,952.2250
2023-05-12T01:49:40.688Z,952.2321
2023-05-12T01:50:41.454Z,952.2411
2023-05-12T01:51:42.487Z,952.2534
2023-05-12T01:52:42.882Z,952.2629
2023-05-12T01:53:43.558Z,952.2733
2023-05-12T01:54:43.593Z,952.2780
2023-05-12T01:55:44.803Z,952.2778
2023-05-12T01:56:44.957Z,952.2770
2023-05-12T01:57:46.080Z,952.2818
2023-05-12T01:58:46.621Z,952.2857
2023-05-12T01:59:47.450Z,952.2832
2023-05-12T02:00:48.222Z,952.2857
2023-05-12T02:01:49.565Z,952.2928
2023-05-12T02:02:49.531Z,952.3030
2023-05-12T02:03:49.805Z,952.3191
2023-05-12T02:04:50.977Z,952.3348
2023-05-12T02:05:51.950Z,952.3500
2023-05-12T02:06:52.928Z,952.3555
2023-05-12T02:08:54.345Z,952.3691
2023-05-12T02:09:54.545Z,952.3713
2023-05-12T02:10:56.694Z,952.3787
2023-05-12T02:11:57.543Z,952.3721
2023-05-12T02:12:58.160Z,952.3732
2023-05-12T02:13:58.737Z,952.3734
2023-05-12T02:14:59.676Z,952.3707
2023-05-12T02:15:59.714Z,952.3732
2023-05-12T02:17:00.340Z,952.3759
2023-05-12T02:18:01.140Z,952.3791
2023-05-12T02:19:02.006Z,952.3854
2023-05-12T02:20:02.730Z,952.3921
2023-05-12T02:21:03.635Z,952.3943
2023-05-12T02:22:04.201Z,952.3953
2023-05-12T02:23:04.729Z,952.3975
2023-05-12T02:24:05.925Z,952.3971
2023-05-12T02:25:06.538Z,952.3928
2023-05-12T02:26:06.554Z,952.3903
2023-05-12T02:27:07.345Z,952.3857
2023-05-12T02:28:07.889Z,952.3807
2023-05-12T02:29:08.644Z,952.3682
2023-05-12T02:30:09.313Z,952.3604
2023-05-12T02:31:10.246Z,952.3480
2023-05-12T02:32:11.382Z,952.3389
2023-05-12T02:34:11.858Z,952.3300
2023-05-12T02:38:14.082Z,952.3259
2023-05-12T02:39:15.184Z,952.3290
2023-05-12T02:40:15.255Z,952.3246
2023-05-12T02:41:16.986Z,952.3221
2023-05-12T02:42:17.063Z,952.3212
2023-05-12T02:43:18.489Z,952.3143
2023-05-12T02:44:19.040Z,952.3096
2023-05-12T02:45:19.272Z,952.3032
2023-05-12T02:46:20.051Z,952.2961
2023-05-12T02:47:20.225Z,952.2921
2023-05-12T02:48:20.940Z,952.2896
2023-05-12T02:49:21.631Z,952.2870
2023-05-12T02:50:22.550Z,952.2782
2023-05-12T02:51:22.422Z,952.2755
2023-05-12T02:55:23.940Z,952.2584
2023-05-12T02:56:24.286Z,952.2523
2023-05-12T02:57:25.197Z,952.2421
2023-05-12T02:58:25.537Z,952.2323
2023-05-12T02:59:26.653Z,952.2267
2023-05-12T03:00:27.296Z,952.2200
2023-05-12T03:01:27.532Z,952.2141
2023-05-12T03:02:27.911Z,952.2111
2023-05-12T03:03:28.711Z,952.2109
2023-05-12T03:05:30.110Z,952.2098
2023-05-12T03:08:32.594Z,952.2011
2023-05-12T03:09:33.291Z,952.2075
2023-05-12T03:10:34.030Z,952.2057
2023-05-12T03:11:34.578Z,952.2023
2023-05-12T03:12:34.803Z,952.1977
2023-05-12T03:13:35.132Z,952.2019
2023-05-12T03:14:38.528Z,952.1931
2023-05-12T03:16:37.709Z,952.1768
2023-05-12T03:17:38.059Z,952.1688
2023-05-12T03:18:38.807Z,952.1675
2023-05-12T03:19:39.557Z,952.1600
2023-05-12T03:20:39.721Z,952.1638
2023-05-12T03:21:40.864Z,952.1616
2023-05-12T03:23:41.919Z,952.1525
2023-05-12T03:25:42.706Z,952.1489
2023-05-12T03:26:44.458Z,952.1409
2023-05-12T03:27:45.559Z,952.1321
2023-05-12T03:28:47.037Z,952.1207
2023-05-12T03:29:47.234Z,952.1132
2023-05-12T03:30:47.217Z,952.1096
2023-05-12T03:31:48.403Z,952.1059
2023-05-12T03:33:49.314Z,952.1050
2023-05-12T03:35:51.413Z,952.0862
2023-05-12T03:36:52.056Z,952.0804
2023-05-12T03:37:53.203Z,952.0775
2023-05-12T03:41:54.884Z,952.0488
2023-05-12T03:42:55.105Z,952.0402
2023-05-12T03:43:56.839Z,952.0342
2023-05-12T03:44:57.174Z,952.0361
2023-05-12T03:45:57.750Z,952.0336
2023-05-12T03:46:59.133Z,952.0377
2023-05-12T03:47:59.210Z,952.0319
2023-05-12T03:49:00.041Z,952.0295
2023-05-12T03:50:00.541Z,952.0249
2023-05-12T03:51:01.123Z,952.0266
2023-05-12T03:56:05.253Z,952.0177
2023-05-12T03:57:06.363Z,952.0193
2023-05-12T03:59:07.351Z,952.0237
2023-05-12T04:00:07.434Z,952.0228
2023-05-12T04:01:08.158Z,952.0178
2023-05-12T04:02:09.471Z,952.0049
2023-05-12T04:03:10.008Z,951.9966
2023-05-12T04:04:10.068Z,951.9800
2023-05-12T04:05:10.308Z,951.9649
2023-05-12T04:07:11.513Z,951.9446
2023-05-12T04:08:11.707Z,951.9475
2023-05-12T04:09:12.867Z,951.9544
2023-05-12T04:10:12.950Z,951.9618
2023-05-12T04:11:14.917Z,951.9682
2023-05-12T04:12:15.537Z,951.9722
2023-05-12T04:13:16.726Z,951.9759
2023-05-12T04:15:17.011Z,951.9677
2023-05-12T04:16:17.314Z,951.9664
2023-05-12T04:17:18.637Z,951.9689
2023-05-12T04:18:18.795Z,951.9679
2023-05-12T04:20:20.110Z,951.9656
2023-05-12T04:26:20.547Z,951.9693
2023-05-12T04:27:21.839Z,951.9733
2023-05-12T04:28:22.133Z,951.9832
2023-05-12T04:29:22.182Z,951.9966
2023-05-12T04:30:22.690Z,952.0046
2023-05-12T04:31:23.139Z,952.0162
2023-05-12T04:32:24.757Z,952.0189
2023-05-12T04:33:25.178Z,952.0244
2023-05-12T04:34:25.678Z,952.0380
2023-05-12T04:35:26.360Z,952.0568
2023-05-12T04:36:26.940Z,952.0714
2023-05-12T04:37:27.418Z,952.0850
2023-05-12T04:38:27.792Z,952.0977
2023-05-12T04:42:29.366Z,952.1451
2023-05-12T04:44:30.371Z,952.1572
2023-05-12T04:45:31.538Z,952.1653
2023-05-12T04:46:32.493Z,952.1688
2023-05-12T04:47:32.689Z,952.1796
2023-05-12T04:48:34.183Z,952.1907
2023-05-12T04:49:34.684Z,952.1987
2023-05-12T04:50:35.601Z,952.2003
2023-05-12T04:51:35.812Z,952.2037
2023-05-12T04:52:36.302Z,952.2075
2023-05-12T04:53:37.177Z,952.2048
2023-05-12T04:54:37.635Z,952.2034
2023-05-12T04:55:37.674Z,952.2073
2023-05-12T04:56:38.427Z,952.2181
2023-05-12T04:57:38.912Z,952.2225
2023-05-12T04:58:38.782Z,952.2288
2023-05-12T04:59:41.185Z,952.2338
2023-05-12T05:00:39.928Z,952.2374
2023-05-12T05:01:41.052Z,952.2346
2023-05-12T05:05:43.686Z,952.2648
2023-05-12T05:09:46.451Z,952.3134
2023-05-12T05:10:47.419Z,952.3209
2023-05-12T05:11:48.101Z,952.3198
2023-05-12T05:12:48.735Z,952.3059
2023-05-12T05:13:49.486Z,952.3109
2023-05-12T05:14:50.062Z,952.3204
2023-05-12T05:15:50.278Z,952.3253
2023-05-12T05:16:51.174Z,952.3420
2023-05-12T05:17:52.166Z,952.3419
2023-05-12T05:18:53.018Z,952.3484
2023-05-12T05:19:58.357Z,952.3455
2023-05-12T05:20:58.327Z,952.3425
2023-05-12T05:21:54.618Z,952.3470
2023-05-12T05:22:56.020Z,952.3538
2023-05-12T05:26:58.284Z,952.3521
2023-05-12T05:28:59.801Z,952.3448
2023-05-12T05:30:00.688Z,952.3378
2023-05-12T05:31:01.842Z,952.3495
2023-05-12T05:32:02.536Z,952.3557
2023-05-12T05:33:03.722Z,952.3660
2023-05-12T05:34:04.286Z,952.3734
2023-05-12T05:35:04.987Z,952.3882
2023-05-12T05:36:05.888Z,952.4027
2023-05-12T05:37:07.004Z,952.4191
2023-05-12T05:38:07.657Z,952.4269
2023-05-12T05:39:08.863Z,952.4232
2023-05-12T05:40:09.479Z,952.4250
2023-05-12T05:41:09.642Z,952.4424
2023-05-12T05:42:09.775Z,952.4504
2023-05-12T05:43:10.874Z,952.4598
2023-05-12T05:44:11.936Z,952.4689
2023-05-12T05:45:12.702Z,952.4720
2023-05-12T05:46:13.541Z,952.4761
2023-05-12T05:47:14.124Z,952.4844
2023-05-12T05:48:15.029Z,952.4866
2023-05-12T05:49:16.053Z,952.4991
2023-05-12T05:50:17.055Z,952.4886
2023-05-12T05:51:17.111Z,952.4857
2023-05-12T05:52:17.576Z,952.4765
2023-05-12T05:53:18.481Z,952.4700
2023-05-12T05:54:18.799Z,952.4756
2023-05-12T05:55:19.454Z,952.4800
2023-05-12T05:56:19.488Z,952.4786
2023-05-12T05:58:21.549Z,952.4709
2023-05-12T05:59:22.257Z,952.4496
2023-05-12T06:00:23.294Z,952.4596
2023-05-12T06:01:24.078Z,952.4620
2023-05-12T06:02:24.628Z,952.4630
2023-05-12T06:03:25.358Z,952.4681
2023-05-12T06:04:26.642Z,952.4695
2023-05-12T06:06:27.614Z,952.4702
2023-05-12T06:08:28.406Z,952.4643
2023-05-12T06:09:28.642Z,952.4686
2023-05-12T06:10:29.797Z,952.4693
2023-05-12T06:11:30.445Z,952.4781
2023-05-12T06:12:31.281Z,952.4875
2023-05-12T06:13:31.424Z,952.4954
2023-05-12T06:14:32.491Z,952.5087
2023-05-12T06:15:32.609Z,952.5168
2023-05-12T06:16:34.482Z,952.5211
2023-05-12T06:17:35.493Z,952.5214
2023-05-12T06:18:36.307Z,952.5300
2023-05-12T06:19:37.684Z,952.5330
2023-05-12T06:20:37.936Z,952.5316
2023-05-12T06:21:38.423Z,952.5270
2023-05-12T06:22:38.905Z,952.5023
2023-05-12T06:23:40.075Z,952.4984
2023-05-12T06:24:40.593Z,952.5098
2023-05-12T06:27:43.054Z,952.5416
2023-05-12T06:28:43.649Z,952.5447
2023-05-12T06:29:44.100Z,952.5460
2023-05-12T06:30:44.441Z,952.5593
2023-05-12T06:31:45.293Z,952.5844
2023-05-12T06:32:45.918Z,952.5914
2023-05-12T06:33:47.044Z,952.5993
2023-05-12T06:34:48.161Z,952.6061
2023-05-12T06:35:48.526Z,952.6075
2023-05-12T06:36:49.408Z,952.6212
2023-05-12T06:37:50.266Z,952.6238
2023-05-12T06:38:51.500Z,952.6389
2023-05-12T06:39:52.065Z,952.6569
2023-05-12T06:40:52.964Z,952.6428
2023-05-12T06:41:53.514Z,952.6489
2023-05-12T06:42:54.315Z,952.6494
2023-05-12T06:43:54.681Z,952.6502
2023-05-12T06:44:55.225Z,952.6582
2023-05-12T06:45:55.777Z,952.6491
2023-05-12T06:46:56.927Z,952.6404
2023-05-12T06:47:57.321Z,952.6226
2023-05-12T06:48:57.814Z,952.6078
2023-05-12T06:49:58.829Z,952.6215
2023-05-12T06:50:59.352Z,952.6026
2023-05-12T06:51:59.773Z,952.5917
2023-05-12T06:53:00.984Z,952.5961
2023-05-12T06:54:01.613Z,952.6072
2023-05-12T06:55:02.170Z,952.6096
2023-05-12T06:56:02.997Z,952.6089
2023-05-12T06:57:04.123Z,952.6196
2023-05-12T06:58:05.290Z,952.6332
2023-05-12T06:59:06.633Z,952.6375
2023-05-12T07:00:07.093Z,952.6400
2023-05-12T07:01:08.243Z,952.6390
2023-05-12T07:02:08.287Z,952.6459
2023-05-12T07:08:12.459Z,952.6049
2023-05-12T07:09:13.467Z,952.5977
2023-05-12T07:10:14.444Z,952.5779
2023-05-12T07:11:15.412Z,952.5719
2023-05-12T07:12:16.635Z,952.5723
2023-05-12T07:13:17.704Z,952.5613
2023-05-12T07:14:18.705Z,952.5557
2023-05-12T07:15:19.961Z,952.5627
2023-05-12T07:16:20.395Z,952.5789
2023-05-12T07:17:21.509Z,952.5773
2023-05-12T07:18:22.557Z,952.5883
2023-05-12T07:19:22.566Z,952.5861
2023-05-12T07:20:23.728Z,952.5966
2023-05-12T07:21:24.783Z,952.6053
2023-05-12T07:22:25.644Z,952.6115
2023-05-12T07:23:26.706Z,952.6268
2023-05-12T07:24:27.902Z,952.6273
2023-05-12T07:25:28.453Z,952.6230
2023-05-12T07:29:30.657Z,952.5848
2023-05-12T07:30:31.813Z,952.5623
2023-05-12T07:31:31.851Z,952.5582
2023-05-12T07:32:32.039Z,952.5400
2023-05-12T07:33:33.278Z,952.5419
2023-05-12T07:34:34.263Z,952.5573
2023-05-12T07:35:35.261Z,952.5481
2023-05-12T07:36:36.297Z,952.5543
2023-05-12T07:37:37.277Z,952.5594
2023-05-12T07:38:38.403Z,952.5709
2023-05-12T07:39:39.485Z,952.5666
2023-05-12T07:40:40.814Z,952.5551
2023-05-12T07:41:41.857Z,952.5479
2023-05-12T07:42:42.951Z,952.5500
2023-05-12T07:43:43.803Z,952.5530
2023-05-12T07:44:44.819Z,952.5490
2023-05-12T07:45:45.060Z,952.5261
2023-05-12T07:46:46.210Z,952.5130
2023-05-12T07:47:47.473Z,952.5013
2023-05-12T07:48:47.463Z,952.4930
2023-05-12T07:49:48.438Z,952.5079
2023-05-12T07:50:49.698Z,952.5198
2023-05-12T07:55:52.832Z,952.4796
2023-05-12T07:56:53.876Z,952.4723
2023-05-12T07:57:55.089Z,952.4896
2023-05-12T07:58:56.118Z,952.4785
2023-05-12T07:59:56.131Z,952.4650
2023-05-12T08:00:57.262Z,952.4451
2023-05-12T08:01:58.513Z,952.4310
2023-05-12T08:02:58.757Z,952.4252
2023-05-12T08:13:05.203Z,952.3879
2023-05-12T08:14:05.489Z,952.4078
2023-05-12T08:15:06.583Z,952.3873
2023-05-12T08:16:06.752Z,952.3963
2023-05-12T08:17:07.221Z,952.3931
2023-05-12T08:18:08.394Z,952.3823
2023-05-12T08:19:08.476Z,952.3868
2023-05-12T08:20:08.484Z,952.3928
2023-05-12T08:21:09.527Z,952.4074
2023-05-12T08:22:09.617Z,952.4056
2023-05-12T08:23:10.093Z,952.4241
2023-05-12T08:24:11.149Z,952.4377
2023-05-12T08:25:12.665Z,952.3877
2023-05-12T08:26:12.675Z,952.4113
2023-05-12T08:27:13.875Z,952.4111
2023-05-12T08:28:14.895Z,952.4332
2023-05-12T08:29:15.898Z,952.4225
2023-05-12T08:30:16.713Z,952.4074
2023-05-12T08:31:16.853Z,952.3992
2023-05-12T08:32:16.856Z,952.3946
2023-05-12T08:33:17.952Z,952.3956
2023-05-12T08:34:18.933Z,952.4011
2023-05-12T08:35:21.066Z,952.4042
2023-05-12T08:36:20.928Z,952.3885
2023-05-12T08:37:22.014Z,952.3717
2023-05-12T08:38:22.193Z,952.3482
2023-05-12T08:39:23.108Z,952.3530
2023-05-12T08:40:24.235Z,952.3362
2023-05-12T08:41:25.217Z,952.3181
2023-05-12T08:42:26.245Z,952.3087
2023-05-12T08:43:27.152Z,952.3196
2023-05-12T08:44:27.815Z,952.3270
2023-05-12T08:45:28.825Z,952.3366
2023-05-12T08:46:30.150Z,952.3477
2023-05-12T08:47:30.342Z,952.3533
2023-05-12T08:48:30.425Z,952.3613
2023-05-12T08:49:31.476Z,952.3853
2023-05-12T08:50:31.607Z,952.3772
2023-05-12T08:51:32.826Z,952.3721
2023-05-12T09:02:53.911Z,952.4285
2023-05-12T09:03:47.449Z,952.4231
2023-05-12T09:04:48.625Z,952.4098
2023-05-12T09:05:49.078Z,952.3887
2023-05-12T09:06:50.217Z,952.3813
2023-05-12T09:07:50.629Z,952.3956
2023-05-12T09:08:51.815Z,952.3830
2023-05-12T09:09:52.975Z,952.4015
2023-05-12T09:10:53.847Z,952.3949
2023-05-12T09:11:54.883Z,952.4002
2023-05-12T09:12:55.810Z,952.3936
2023-05-12T09:13:57.074Z,952.3806
2023-05-12T09:14:58.188Z,952.3753
2023-05-12T09:15:59.355Z,952.3804
2023-05-12T09:16:59.418Z,952.3998
2023-05-12T09:18:00.011Z,952.3954
2023-05-12T09:19:00.717Z,952.3663
2023-05-12T09:20:00.769Z,952.3552
2023-05-12T09:21:00.819Z,952.3792
2023-05-12T09:22:01.907Z,952.3721
2023-05-12T09:23:02.972Z,952.3551
2023-05-12T09:24:03.974Z,952.3561
2023-05-12T09:25:05.005Z,952.3502
2023-05-12T09:26:06.077Z,952.3337
2023-05-12T09:27:07.136Z,952.3381
2023-05-12T09:28:08.213Z,952.3256
2023-05-12T09:29:09.939Z,952.3226
2023-05-12T09:30:09.471Z,952.3063
2023-05-12T09:31:09.476Z,952.3004
2023-05-12T09:32:10.929Z,952.2877
2023-05-12T09:33:10.976Z,952.2865
2023-05-12T09:34:12.032Z,952.2800
2023-05-12T09:35:13.152Z,952.2766
2023-05-12T09:36:14.174Z,952.2545
2023-05-12T09:37:16.140Z,952.2422
2023-05-12T09:38:17.152Z,952.2302
2023-05-12T09:39:17.653Z,952.2165
2023-05-12T09:40:18.717Z,952.1992
2023-05-12T09:41:19.583Z,952.1890
2023-05-12T09:42:20.625Z,952.1702
2023-05-12T09:43:21.253Z,952.1403
2023-05-12T09:44:22.439Z,952.1451
2023-05-12T09:45:23.053Z,952.1424
2023-05-12T09:46:24.197Z,952.1426
2023-05-12T09:47:24.238Z,952.1613
2023-05-12T09:48:27.466Z,952.1479
2023-05-12T09:49:26.371Z,952.1478
2023-05-12T09:54:30.404Z,952.0964
2023-05-12T09:55:31.604Z,952.0928
2023-05-12T09:56:32.737Z,952.0792
2023-05-12T09:57:33.785Z,952.0753
2023-05-12T09:58:34.945Z,952.0730
2023-05-12T09:59:35.969Z,952.0596
2023-05-12T10:01:43.956Z,952.0747
2023-05-12T10:02:44.155Z,952.0569
2023-05-12T10:03:44.251Z,952.0458
2023-05-12T10:04:44.415Z,952.0535
2023-05-12T10:05:44.993Z,952.0454
2023-05-12T10:06:45.986Z,952.0385
2023-05-12T10:07:46.985Z,952.0573
2023-05-12T10:08:48.161Z,952.0581
2023-05-12T10:09:49.316Z,952.0464
2023-05-12T10:10:50.475Z,952.0196
2023-05-12T10:11:53.537Z,952.0213
2023-05-12T10:12:52.578Z,952.0029
2023-05-12T10:13:53.538Z,951.9970
2023-05-12T10:14:54.363Z,952.0026
2023-05-12T10:15:55.428Z,951.9930
2023-05-12T10:16:56.745Z,951.9966
2023-05-12T10:17:56.956Z,952.0200
2023-05-12T10:18:58.218Z,952.0157
2023-05-12T10:19:58.293Z,952.0031
2023-05-12T10:20:59.151Z,952.0021
2023-05-12T10:22:00.247Z,951.9704
2023-05-12T10:23:01.165Z,951.9844
2023-05-12T10:24:02.248Z,951.9615
2023-05-12T10:25:03.435Z,951.9698
2023-05-12T10:26:03.973Z,951.9694
2023-05-12T10:27:05.132Z,951.9476
2023-05-12T10:28:07.033Z,951.9427
2023-05-12T10:29:06.877Z,951.9594
2023-05-12T10:30:07.321Z,951.9538
2023-05-12T10:31:07.527Z,951.9630
2023-05-12T10:32:07.498Z,951.9683
2023-05-12T10:34:09.310Z,951.9840
2023-05-12T10:35:10.381Z,951.9377
2023-05-12T10:36:11.176Z,951.9183
2023-05-12T10:37:12.247Z,951.8702
2023-05-12T10:38:13.170Z,951.8485
2023-05-12T10:39:14.292Z,951.8215
2023-05-12T10:40:15.528Z,951.8123
2023-05-12T10:41:16.543Z,951.8004
2023-05-12T10:42:16.754Z,951.8313
2023-05-12T10:53:24.408Z,951.7802
2023-05-12T10:54:24.972Z,951.7745
2023-05-12T10:55:25.374Z,951.7855
2023-05-12T10:56:25.617Z,951.7864
2023-05-12T10:57:26.047Z,951.8228
2023-05-12T10:58:26.770Z,951.8266
2023-05-12T10:59:26.384Z,951.8000
2023-05-12T11:00:26.917Z,951.7919
2023-05-12T11:01:27.660Z,951.7958
2023-05-12T11:02:30.666Z,951.7662
2023-05-12T11:03:33.405Z,951.7584
2023-05-12T11:04:33.889Z,951.7786
2023-05-12T11:05:33.694Z,951.7847
2023-05-12T11:06:34.330Z,951.7988
2023-05-12T11:10:35.790Z,951.8358
2023-05-12T11:11:36.303Z,951.8344
2023-05-12T11:12:36.801Z,951.8282
2023-05-12T11:13:36.814Z,951.8135
2023-05-12T11:14:37.783Z,951.8204
2023-05-12T11:15:38.272Z,951.8152
2023-05-12T11:16:39.542Z,951.8000
2023-05-12T11:17:40.637Z,951.7993
2023-05-12T11:18:40.676Z,951.8043
2023-05-12T11:19:42.052Z,951.8038
2023-05-12T11:20:42.921Z,951.8145
2023-05-12T11:21:44.747Z,951.8215
2023-05-12T11:25:46.033Z,951.8130
2023-05-12T11:26:47.002Z,951.8027
2023-05-12T11:27:48.176Z,951.8094
2023-05-12T11:28:49.250Z,951.8030
2023-05-12T11:29:50.267Z,951.7949
2023-05-12T11:30:53.929Z,951.7924
2023-05-12T11:31:52.395Z,951.7914
2023-05-12T11:32:53.498Z,951.7990
2023-05-12T11:34:08.277Z,951.8066
2023-05-12T11:34:55.811Z,951.7960
2023-05-12T11:35:56.608Z,951.8030
2023-05-12T11:36:57.140Z,951.7948
2023-05-12T11:56:13.156Z,951.7063
2023-05-12T11:57:14.201Z,951.6976
2023-05-12T11:58:15.110Z,951.7184
2023-05-12T11:59:16.148Z,951.7119
2023-05-12T12:00:16.512Z,951.6922
2023-05-12T12:01:17.560Z,951.6877
2023-05-12T12:02:20.043Z,951.6757
2023-05-12T12:03:18.923Z,951.6649
2023-05-12T12:04:19.781Z,951.6920
2023-05-12T12:05:20.083Z,951.6818
2023-05-12T12:06:20.216Z,951.6332
2023-05-12T12:07:21.045Z,951.6455
2023-05-12T12:08:21.327Z,951.6567
2023-05-12T12:09:22.435Z,951.6260
2023-05-12T12:10:23.560Z,951.5945
2023-05-12T12:11:24.552Z,951.5664
2023-05-12T12:12:25.572Z,951.5617
2023-05-12T12:13:27.206Z,951.5953
2023-05-12T12:14:28.340Z,951.6251
2023-05-12T12:15:29.401Z,951.6035
2023-05-12T12:16:30.640Z,951.5949
2023-05-12T12:17:31.008Z,951.6108
2023-05-12T12:18:31.508Z,951.5885
2023-05-12T12:19:32.809Z,951.5756
2023-05-12T12:20:33.673Z,951.5785
2023-05-12T12:21:34.639Z,951.5953
2023-05-12T12:22:35.714Z,951.5536
2023-05-12T12:23:49.951Z,951.5330
2023-05-12T12:24:37.217Z,951.5084
2023-05-12T12:25:38.168Z,951.4962
2023-05-12T12:26:39.663Z,951.5015
2023-05-12T12:27:39.426Z,951.4818
2023-05-12T12:28:40.573Z,951.5128
2023-05-12T12:29:41.533Z,951.5004
2023-05-12T12:30:42.566Z,951.4866
2023-05-12T12:31:43.786Z,951.4868
2023-05-12T12:32:44.924Z,951.4764
2023-05-12T12:33:45.888Z,951.4416
2023-05-12T12:34:47.116Z,951.4161
2023-05-12T12:35:47.486Z,951.4337
2023-05-12T12:36:48.575Z,951.4277
2023-05-12T12:37:48.701Z,951.4146
2023-05-12T12:38:49.536Z,951.4170
2023-05-12T12:39:50.567Z,951.4088
2023-05-12T12:40:51.626Z,951.3766
2023-05-12T12:41:52.595Z,951.3577
2023-05-12T12:42:53.515Z,951.3549
2023-05-12T12:43:54.601Z,951.3674
2023-05-12T12:44:55.645Z,951.3385
2023-05-12T12:45:56.744Z,951.2977
2023-05-12T12:46:57.606Z,951.2925
2023-05-12T12:47:58.032Z,951.2726
2023-05-12T12:48:59.164Z,951.2781
2023-05-12T12:50:00.269Z,951.2853
2023-05-12T12:51:00.312Z,951.2681
2023-05-12T12:52:01.544Z,951.2657
2023-05-12T12:53:02.480Z,951.2119
2023-05-12T12:54:03.401Z,951.2030
2023-05-12T12:55:04.402Z,951.2204
2023-05-12T12:56:05.382Z,951.2564
2023-05-12T12:57:06.461Z,951.2466
2023-05-12T12:58:07.676Z,951.2402
2023-05-12T12:59:08.661Z,951.2955
2023-05-12T13:00:09.792Z,951.2759
2023-05-12T13:01:10.828Z,951.2451
2023-05-12T13:02:12.464Z,951.2689
2023-05-12T13:03:12.048Z,951.2862
2023-05-12T13:04:12.171Z,951.2766
2023-05-12T13:05:13.198Z,951.2858
2023-05-12T13:06:14.069Z,951.3017
2023-05-12T13:07:15.116Z,951.2947
2023-05-12T13:08:16.159Z,951.2934
2023-05-12T13:09:19.668Z,951.3000
2023-05-12T13:10:17.119Z,951.3080
2023-05-12T13:11:18.100Z,951.2830
2023-05-12T13:12:19.137Z,951.2947
2023-05-12T13:13:20.042Z,951.2868
2023-05-12T13:14:21.024Z,951.2985
2023-05-12T13:15:22.403Z,951.2813
2023-05-12T13:16:22.490Z,951.2826
2023-05-12T13:17:22.442Z,951.2930
2023-05-12T13:18:23.811Z,951.2798
2023-05-12T13:19:24.632Z,951.2696
2023-05-12T13:20:25.615Z,951.2236
2023-05-12T13:21:26.518Z,951.2642
2023-05-12T13:22:27.530Z,951.2506
2023-05-12T13:23:28.529Z,951.2264
2023-05-12T13:24:29.580Z,951.1964
2023-05-12T13:25:30.729Z,951.1860
2023-05-12T13:26:31.182Z,951.2159
2023-05-12T13:27:32.190Z,951.2200
2023-05-12T13:28:33.204Z,951.2009
2023-05-12T13:29:34.346Z,951.1887
2023-05-12T13:30:35.542Z,951.1074
2023-05-12T13:31:36.510Z,951.1111
2023-05-12T13:32:37.713Z,951.1100
2023-05-12T13:33:38.872Z,951.0949
2023-05-12T13:34:39.813Z,951.0751
2023-05-12T13:35:40.719Z,951.0574
2023-05-12T13:36:41.709Z,951.0726
2023-05-12T13:37:42.841Z,951.0674
2023-05-12T13:38:43.977Z,951.0579
2023-05-12T13:39:45.043Z,951.0515
2023-05-12T13:40:46.196Z,951.0415
2023-05-12T13:41:47.250Z,951.0453
2023-05-12T13:42:48.185Z,951.0140
2023-05-12T13:43:49.269Z,951.0130
2023-05-12T13:44:50.342Z,951.0496
2023-05-12T13:45:50.557Z,951.0661
2023-05-12T13:46:50.744Z,951.0430
2023-05-12T13:47:51.883Z,951.0436
2023-05-12T13:48:51.858Z,951.0532
2023-05-12T13:49:52.955Z,951.0123
2023-05-12T13:50:54.103Z,950.9857
2023-05-12T13:51:55.239Z,950.9666
2023-05-12T13:52:56.509Z,950.9702
2023-05-12T13:53:57.609Z,950.9685
2023-05-12T13:54:59.168Z,950.9600
2023-05-12T13:55:59.329Z,950.9451
2023-05-12T13:57:00.315Z,950.9374
2023-05-12T13:58:01.299Z,950.9187
2023-05-12T13:59:02.336Z,950.8953
2023-05-12T14:00:03.281Z,950.8919
2023-05-12T14:01:04.986Z,950.9238
2023-05-12T14:02:06.111Z,950.9481
2023-05-12T14:03:07.253Z,950.9253
2023-05-12T14:04:08.510Z,950.9172
2023-05-12T14:05:08.806Z,950.9268
2023-05-12T14:06:09.953Z,950.8781
2023-05-12T14:07:10.668Z,950.8453
2023-05-12T14:08:11.665Z,950.8796
2023-05-12T14:09:12.934Z,950.8683
2023-05-12T14:10:13.722Z,950.8183
2023-05-12T14:11:14.736Z,950.8426
2023-05-12T14:12:15.900Z,950.8517
2023-05-12T14:13:17.034Z,950.8839
2023-05-12T14:14:18.106Z,950.8779
2023-05-12T14:15:32.286Z,950.8505
2023-05-12T14:16:23.882Z,950.8530
2023-05-12T14:17:24.036Z,950.8504
2023-05-12T14:18:24.098Z,950.8058
2023-05-12T14:19:24.203Z,950.7880